AirNav   Air Wisconsin Up To $57,000 Bonus
 
 409 users online  

18SC American Dream Skyranch Airport
Ninety Six, South Carolina, USA


FAA INFORMATION EFFECTIVE 03 NOVEMBER 2022

Location

FAA Identifier: 18SC
Lat/Long: 34-05-51.9700N 081-53-29.5500W
34-05.866167N 081-53.492500W
34.0977694,-81.8915417
(estimated)
Elevation: 450 ft. / 137 m (estimated)
From city: 8 miles SE of NINETY SIX, SC
Time zone: UTC +0 (year round; does not observe DST)
Zip code: 29666

Airport Operations

Airport use: Private use. Permission required prior to landing
Activation date: 02/2022
Control tower: no
ARTCC: JACKSONVILLE CENTER
FSS: ANDERSON FLIGHT SERVICE STATION
Attendance: 
Segmented circle: no

Airport Communications

CTAF: 122.9
WX ASOS at GRD (16 nm NW): 121.125 (864-388-9115)
WX AWOS-3 at EOE (18 nm NE): 124.275 (803-276-2419)

Nearby radio navigation aids

VOR radial/distance  VOR name  Freq  Var
GRDr126/16.0GREENWOOD VORTAC115.5001W
IRQr034/27.0COLLIERS VORTAC113.9004W

 
NDB name  Hdg/Dist  Freq  Var  ID
ENOREE232/18.027807WEOE . --- .
AIKEN344/28.834706WAIK .- .. -.-
UNION COUNTY205/37.332606WUOT ..- --- -
EMORY012/38.538504WEMR . -- .-.

Airport Services

Runway Information

Runway 13/31

Dimensions: 3411 x 50 ft. / 1040 x 15 m
Surface: turf
RUNWAY 13  RUNWAY 31
Latitude: 34-06.051167N34-05.681333N
Longitude: 081-53.747333W081-53.238333W
Elevation: 410.0 ft.435.0 ft.
Traffic pattern: leftright
Runway heading: 131 true311 true

Airport Ownership and Management from official FAA records

Ownership: Privately-owned
Owner: WB HANGARS LLC
3200 FRUIT HILL ROAD
NINETY SIX, SC 29666
Phone 407-973-9347
Manager: THOM RICHARD
3200 FRUIT HILL ROAD
NINETY SIX, SC 29666
Phone 407-973-9347
P40THOM@GMAIL.COM

Airport Operational Statistics

Aircraft based on the field: 9
Single engine airplanes: 6
Multi engine airplanes: 1
Jet airplanes: 2
    

Instrument Procedures

There are no published instrument procedures at 18SC.

Some nearby airports with instrument procedures:

6J4 - Saluda County Airport (11 nm SE)
KGRD - Greenwood County Airport (16 nm NW)
KEOE - Newberry County Airport (18 nm NE)
KLUX - Laurens County Airport (25 nm N)
KAIK - Aiken Regional Airport (29 nm S)
 
Loc | Ops | Rwys | IFR | FBO | Links
Com | Nav | Svcs | Stats | Notes
Aerial photo
No photo
 
Airport distance calculator
Flying to American Dream Skyranch Airport? Find the distance to fly.

From to 18SC

Sunrise and sunset
Times for 29-Nov-2022
 Zulu (UTC)
Morning civil twilight11:47
Sunrise12:14
Sunset22:17
Evening civil twilight22:45

Current date and time
Zulu (UTC)  29-Nov-2022 07:34:47
 
METAR
KGRD 
16nm NW 
290656Z AUTO 00000KT 10SM CLR 04/03 A3010 RMK AO2 SLP193 T00390033 $
KEOE 
18nm NE 
290635Z AUTO 00000KT 10SM CLR 06/05 A3013 RMK AO2
KLUX 
25nm N 
290715Z AUTO 08004KT 10SM CLR 07/06 A3010 RMK AO2
KAIK 
29nm S 
290715Z AUTO 00000KT 10SM CLR 05/04 A3010 RMK AO2 T00480041
TAF
KDNL 
39nm S 
290530Z 2906/3006 00000KT P6SM SKC FM291500 12005KT P6SM SKC
KCAE 
40nm E 
290530Z 2906/3006 00000KT P6SM SKC FM291500 12005KT P6SM SKC
KAGS 
44nm S 
290530Z 2906/3006 00000KT P6SM SKC FM290800 00000KT 4SM BR SKC TEMPO 2909/2913 3/4SM BR VV002 FM291300 12005KT P6SM SKC
KCUB 
45nm E 
290530Z 2906/3006 00000KT P6SM SKC FM291500 12005KT P6SM SKC
KAND 
47nm NW 
290525Z 2906/3006 00000KT P6SM SKC FM291300 06004KT P6SM SKC FM292300 11004KT P6SM SCT050 BKN250 FM300200 08003KT P6SM BKN040 PROB30 3004/3006 4SM -SHRA BR OVC025
NOTAMs
Click for the latest NOTAMs
NOTAMs are issued by the DoD/FAA and will open in a separate window not controlled by AirNav.

 

 
 

Would you like to see your business listed on this page?

 If your business provides an interesting product or service to pilots, flight crews, aircraft, or users of the American Dream Skyranch Airport, you should consider listing it here.  To start the listing process, click on the button below
 
Add a business
 

Other Pages about American Dream Skyranch Airport

Update a link
 
Copyright © AirNav, LLC. All rights reserved. Privacy Policy  Contact